Time;durP1;ratioP1;P1;durP2;ratioP2;P2;SDS_P1;SDS_P2;PMS_P1;PMS_P2;Temp;Humidity;BMP_temperature;BMP_pressure;BME280_temperature;BME280_humidity;BME280_pressure;Samples;Min_cycle;Max_cycle;Signal;HPM_P1;HPM_P2
2021/10/28 00:12:29;;;;;;;4.93;3.15;;;11.00;92.20;;;;;;2080976;28;20140;-91
2021/10/28 00:13:33;;;;;;;5.88;3.20;;;11.00;92.20;;;;;;2074049;28;20141;-90
2021/10/28 00:14:34;;;;;;;6.03;3.45;;;11.00;92.20;;;;;;2073392;28;20042;-91
2021/10/28 00:15:38;;;;;;;5.65;3.40;;;11.00;92.20;;;;;;2066585;28;20031;-91
2021/10/28 00:16:38;;;;;;;4.10;3.10;;;11.00;92.20;;;;;;2067478;28;20044;-91
2021/10/28 00:17:58;;;;;;;5.18;3.45;;;11.00;92.20;;;;;;2074082;28;20030;-91
2021/10/28 00:19:02;;;;;;;5.82;3.47;;;11.00;92.30;;;;;;2068391;28;20117;-91
2021/10/28 00:20:04;;;;;;;7.05;3.78;;;11.00;92.30;;;;;;2066486;28;20527;-91
2021/10/28 00:21:06;;;;;;;6.65;3.70;;;11.00;92.30;;;;;;2066382;28;20034;-91
2021/10/28 00:22:07;;;;;;;5.50;3.72;;;11.00;92.30;;;;;;2073103;28;20034;-91
2021/10/28 00:23:09;;;;;;;5.38;3.80;;;11.00;92.30;;;;;;2082620;28;20022;-91
2021/10/28 00:24:12;;;;;;;5.75;3.58;;;11.00;92.30;;;;;;2078155;28;20038;-90
2021/10/28 00:25:12;;;;;;;6.20;4.13;;;10.90;92.30;;;;;;2062523;28;20051;-91
2021/10/28 00:26:13;;;;;;;6.07;3.65;;;10.90;92.30;;;;;;2073936;28;20052;-91
2021/10/28 00:27:14;;;;;;;5.65;3.90;;;10.90;92.60;;;;;;2094337;28;20033;-91
2021/10/28 00:28:15;;;;;;;5.45;3.65;;;10.90;92.30;;;;;;2077625;28;20543;-91
2021/10/28 00:29:18;;;;;;;5.95;3.78;;;10.90;92.30;;;;;;2070189;28;20085;-90
2021/10/28 00:30:19;;;;;;;5.25;3.45;;;10.90;92.40;;;;;;2083341;28;20037;-91
2021/10/28 00:31:19;;;;;;;5.53;3.55;;;10.90;92.40;;;;;;2073944;28;20061;-91
2021/10/28 00:32:20;;;;;;;4.82;3.55;;;10.90;92.40;;;;;;2072665;28;20500;-91
2021/10/28 00:33:21;;;;;;;6.20;3.63;;;10.90;92.40;;;;;;2073634;28;20026;-91
2021/10/28 00:34:22;;;;;;;6.00;4.00;;;10.90;92.40;;;;;;2066209;28;20046;-92
2021/10/28 00:35:22;;;;;;;5.20;3.92;;;10.90;92.40;;;;;;2066014;28;20043;-91
2021/10/28 00:36:24;;;;;;;5.55;3.92;;;10.90;92.40;;;;;;2067658;28;20408;-91
2021/10/28 00:37:25;;;;;;;6.18;3.92;;;10.90;92.40;;;;;;2081413;28;20041;-91
2021/10/28 00:38:26;;;;;;;5.72;4.03;;;10.90;92.40;;;;;;2073996;28;20033;-91
2021/10/28 00:39:26;;;;;;;4.78;3.55;;;10.90;92.40;;;;;;2066638;28;20057;-91
2021/10/28 00:40:27;;;;;;;6.43;4.07;;;10.90;92.40;;;;;;2082493;28;20052;-91
2021/10/28 00:41:28;;;;;;;5.55;3.60;;;10.90;92.40;;;;;;2082830;28;20128;-91
2021/10/28 00:42:29;;;;;;;7.45;4.13;;;10.90;92.40;;;;;;2074919;28;20088;-91
2021/10/28 00:43:31;;;;;;;5.38;3.80;;;10.90;92.60;;;;;;2077920;28;20030;-91
2021/10/28 00:44:32;;;;;;;5.35;3.78;;;10.90;92.40;;;;;;2073611;28;20136;-91
2021/10/28 00:45:33;;;;;;;5.10;3.65;;;10.80;92.60;;;;;;2074132;28;20046;-91
2021/10/28 00:46:36;;;;;;;6.38;4.30;;;10.90;92.30;;;;;;2074610;28;20052;-92
2021/10/28 00:51:48;;;;;;;5.15;3.00;;;10.80;92.30;;;;;;2053067;28;20122;-92
2021/10/28 00:52:49;;;;;;;6.20;3.08;;;10.80;92.30;;;;;;2049335;29;20051;-91
2021/10/28 00:53:50;;;;;;;4.72;3.28;;;10.80;92.30;;;;;;2041363;29;20529;-90
2021/10/28 00:54:51;;;;;;;5.75;3.42;;;10.80;92.30;;;;;;2060386;28;20034;-91
2021/10/28 00:55:52;;;;;;;5.80;3.95;;;10.80;92.30;;;;;;2072529;28;20038;-91
2021/10/28 00:56:54;;;;;;;6.70;3.70;;;10.70;92.30;;;;;;2072643;28;20472;-90
2021/10/28 00:57:56;;;;;;;5.93;3.50;;;10.70;92.30;;;;;;2073549;28;20221;-90
2021/10/28 00:58:56;;;;;;;6.22;3.78;;;10.70;92.30;;;;;;2073508;28;20034;-91
2021/10/28 00:59:58;;;;;;;5.95;3.58;;;10.70;92.30;;;;;;2072605;28;20146;-91
2021/10/28 01:01:01;;;;;;;5.97;4.00;;;10.70;92.40;;;;;;2065029;28;20022;-90
2021/10/28 01:02:02;;;;;;;7.15;4.15;;;10.70;92.40;;;;;;2065257;28;20042;-91
2021/10/28 01:03:03;;;;;;;6.07;3.75;;;10.70;92.40;;;;;;2058297;28;20041;-92
2021/10/28 01:04:04;;;;;;;6.28;3.88;;;10.70;92.40;;;;;;2063753;28;20369;-91
2021/10/28 01:05:05;;;;;;;7.32;4.28;;;10.70;92.30;;;;;;2072735;28;20046;-91
2021/10/28 01:06:07;;;;;;;5.03;3.58;;;10.70;92.30;;;;;;2063421;28;20110;-90
2021/10/28 01:07:08;;;;;;;5.80;3.80;;;10.70;92.40;;;;;;2063822;28;20038;-91
2021/10/28 01:08:09;;;;;;;5.07;3.60;;;10.70;92.40;;;;;;2057392;28;20046;-90
2021/10/28 01:09:10;;;;;;;5.63;3.97;;;10.70;92.40;;;;;;2041563;29;20060;-91
2021/10/28 01:10:12;;;;;;;6.32;4.05;;;10.60;92.40;;;;;;2041307;29;20495;-91
2021/10/28 01:11:14;;;;;;;5.40;3.65;;;10.60;92.40;;;;;;2049236;28;20078;-91
2021/10/28 01:12:14;;;;;;;6.03;3.75;;;10.60;92.40;;;;;;2061315;28;20051;-91
2021/10/28 01:13:17;;;;;;;5.38;3.78;;;10.60;92.40;;;;;;2070033;28;20066;-90
2021/10/28 01:14:18;;;;;;;5.63;3.60;;;10.60;92.40;;;;;;2072672;28;20080;-91
2021/10/28 01:15:18;;;;;;;6.53;3.67;;;10.60;92.40;;;;;;2069148;28;20112;-90
2021/10/28 01:16:22;;;;;;;5.00;3.63;;;10.60;92.40;;;;;;2071500;28;20062;-90
2021/10/28 01:17:23;;;;;;;6.50;3.90;;;10.60;92.40;;;;;;2066064;28;20031;-91
2021/10/28 01:18:24;;;;;;;6.30;3.88;;;10.60;92.40;;;;;;2073971;28;20026;-90
2021/10/28 01:19:25;;;;;;;6.50;4.03;;;10.60;92.50;;;;;;2073051;28;20046;-91
2021/10/28 01:20:25;;;;;;;4.90;3.63;;;10.60;92.50;;;;;;2065812;28;20043;-91
2021/10/28 01:21:26;;;;;;;5.45;3.85;;;10.60;92.50;;;;;;2063882;28;20493;-91
2021/10/28 01:22:27;;;;;;;5.63;3.75;;;10.50;92.50;;;;;;2055597;28;20434;-91
2021/10/28 01:23:27;;;;;;;7.15;3.80;;;10.50;92.50;;;;;;2057316;28;20039;-91
2021/10/28 01:24:28;;;;;;;5.15;3.70;;;10.50;92.50;;;;;;2076301;28;20048;-91
2021/10/28 01:25:29;;;;;;;5.40;3.65;;;10.50;92.50;;;;;;2078625;28;20037;-91
2021/10/28 01:26:30;;;;;;;5.88;3.70;;;10.50;92.50;;;;;;2074245;28;20091;-91
2021/10/28 01:27:30;;;;;;;5.53;3.55;;;10.50;92.50;;;;;;2073936;28;20050;-90
2021/10/28 01:28:33;;;;;;;5.97;3.90;;;10.50;92.50;;;;;;2073564;28;20039;-90
2021/10/28 01:29:36;;;;;;;5.13;3.60;;;10.50;92.50;;;;;;2073484;28;20033;-91
2021/10/28 01:30:37;;;;;;;6.00;3.70;;;10.50;92.50;;;;;;2074197;28;20076;-90
2021/10/28 01:31:37;;;;;;;5.72;3.55;;;10.50;92.50;;;;;;2073227;28;20041;-90
2021/10/28 01:32:38;;;;;;;5.88;3.97;;;10.50;92.50;;;;;;2057631;28;20086;-90
2021/10/28 01:33:40;;;;;;;5.13;3.40;;;10.50;92.50;;;;;;2058104;28;20536;-91
2021/10/28 01:34:44;;;;;;;6.20;3.72;;;10.50;92.50;;;;;;2057406;28;20039;-90
2021/10/28 01:35:45;;;;;;;5.53;3.80;;;10.50;92.50;;;;;;2066009;28;20133;-91
2021/10/28 01:36:46;;;;;;;5.65;3.70;;;10.50;92.50;;;;;;2080902;28;20030;-90
2021/10/28 01:37:47;;;;;;;6.05;3.90;;;10.50;92.50;;;;;;2073785;28;20151;-90
2021/10/28 01:38:48;;;;;;;6.50;4.00;;;10.50;92.50;;;;;;2073815;28;20029;-91
2021/10/28 01:39:49;;;;;;;5.05;3.55;;;10.50;92.50;;;;;;2073203;28;20037;-92
2021/10/28 01:41:00;;;;;;;4.80;3.42;;;10.50;92.50;;;;;;2081451;28;20045;-91
2021/10/28 01:42:06;;;;;;;6.15;3.75;;;10.50;92.50;;;;;;2077377;28;20129;-91
2021/10/28 01:43:07;;;;;;;5.70;3.90;;;10.50;92.50;;;;;;2073988;28;20076;-91
2021/10/28 01:44:08;;;;;;;5.38;3.80;;;10.40;92.40;;;;;;2073364;28;20038;-91
2021/10/28 01:45:09;;;;;;;6.20;3.83;;;10.40;92.40;;;;;;2070766;28;20172;-90
2021/10/28 01:46:10;;;;;;;5.68;3.53;;;10.40;92.50;;;;;;2072999;28;20401;-90
2021/10/28 01:47:17;;;;;;;5.00;3.50;;;10.50;92.50;;;;;;2073437;28;20034;-91
2021/10/28 01:48:18;;;;;;;5.22;3.70;;;10.40;92.50;;;;;;2079091;28;20037;-90
2021/10/28 01:49:24;;;;;;;4.95;3.47;;;10.40;92.50;;;;;;2078909;28;20124;-90
2021/10/28 01:50:28;;;;;;;6.97;3.60;;;10.40;92.50;;;;;;2079737;28;20111;-90
2021/10/28 01:51:28;;;;;;;5.82;3.42;;;10.40;92.50;;;;;;2072894;28;20412;-90
2021/10/28 01:52:29;;;;;;;6.95;3.80;;;10.40;92.50;;;;;;2065071;28;20050;-90
2021/10/28 01:53:29;;;;;;;5.90;4.00;;;10.40;92.50;;;;;;2077425;28;20065;-90
2021/10/28 01:54:30;;;;;;;5.88;3.80;;;10.40;92.50;;;;;;2074427;28;20594;-92
2021/10/28 01:55:31;;;;;;;6.07;3.58;;;10.40;92.50;;;;;;2073435;28;20508;-91
2021/10/28 01:56:32;;;;;;;5.25;3.80;;;10.40;92.50;;;;;;2057171;28;20062;-91
2021/10/28 01:57:32;;;;;;;6.03;4.03;;;10.40;92.50;;;;;;2065166;28;20209;-91
2021/10/28 01:58:33;;;;;;;5.18;3.67;;;10.30;92.50;;;;;;2068188;28;20521;-91
2021/10/28 01:59:34;;;;;;;4.97;3.60;;;10.30;92.60;;;;;;2065468;28;20038;-90
2021/10/28 02:00:35;;;;;;;5.57;3.92;;;10.30;92.60;;;;;;2065193;28;20084;-91
2021/10/28 02:01:36;;;;;;;6.75;4.07;;;10.30;92.60;;;;;;2073281;28;20573;-90
2021/10/28 02:02:37;;;;;;;7.00;4.10;;;10.40;92.60;;;;;;2073125;28;20543;-91
2021/10/28 02:03:37;;;;;;;6.00;3.75;;;10.40;92.60;;;;;;2073329;28;20041;-91
2021/10/28 02:04:38;;;;;;;6.28;3.75;;;10.30;92.50;;;;;;2073071;28;20042;-91
2021/10/28 02:05:39;;;;;;;5.65;3.95;;;10.30;92.50;;;;;;2073364;28;20073;-91
2021/10/28 02:06:40;;;;;;;6.45;3.88;;;10.30;92.50;;;;;;2072964;28;20483;-90
2021/10/28 02:07:41;;;;;;;6.43;3.60;;;10.30;92.60;;;;;;2075826;28;20061;-91
2021/10/28 02:08:41;;;;;;;4.97;3.60;;;10.30;92.50;;;;;;2077077;28;20484;-91
2021/10/28 02:09:42;;;;;;;5.75;3.72;;;10.30;92.50;;;;;;2065450;28;20217;-91
2021/10/28 02:10:43;;;;;;;5.38;3.58;;;10.30;92.60;;;;;;2069379;28;20093;-91
2021/10/28 02:11:43;;;;;;;8.35;3.90;;;10.30;92.60;;;;;;2072695;28;20177;-91
2021/10/28 02:12:48;;;;;;;6.22;3.70;;;10.30;92.60;;;;;;2079993;28;20046;-91
2021/10/28 02:13:48;;;;;;;6.22;3.53;;;10.20;92.60;;;;;;2081151;28;20124;-90
2021/10/28 02:14:49;;;;;;;5.60;4.00;;;10.20;92.80;;;;;;2083595;28;20044;-91
2021/10/28 02:15:49;;;;;;;6.45;3.78;;;10.20;92.60;;;;;;2090318;28;20037;-90
2021/10/28 02:16:50;;;;;;;5.18;3.45;;;10.20;92.60;;;;;;2073434;28;20130;-91
2021/10/28 02:17:52;;;;;;;6.72;3.85;;;10.20;92.60;;;;;;2073732;28;20041;-91
2021/10/28 02:18:52;;;;;;;6.05;3.78;;;10.20;92.60;;;;;;2077588;28;20060;-91
2021/10/28 02:19:53;;;;;;;7.32;4.10;;;10.20;92.60;;;;;;2081789;28;20049;-91
2021/10/28 02:20:53;;;;;;;5.97;3.75;;;10.20;92.90;;;;;;2081999;28;20038;-91
2021/10/28 02:21:55;;;;;;;5.50;3.90;;;10.20;92.60;;;;;;2082036;28;20033;-91
2021/10/28 02:22:55;;;;;;;5.90;3.88;;;10.20;92.60;;;;;;2078658;28;20037;-91
2021/10/28 02:23:56;;;;;;;5.53;3.83;;;10.20;92.60;;;;;;2072067;28;20065;-91
2021/10/28 02:24:57;;;;;;;7.38;4.03;;;10.20;92.60;;;;;;2072963;28;20034;-91
2021/10/28 02:25:58;;;;;;;6.05;3.53;;;10.20;92.60;;;;;;2088306;28;20116;-91
2021/10/28 02:26:59;;;;;;;5.65;3.75;;;10.20;92.60;;;;;;2081576;28;20076;-91
2021/10/28 02:28:00;;;;;;;5.50;3.63;;;10.20;92.60;;;;;;2075412;28;20492;-92
2021/10/28 02:29:03;;;;;;;5.70;3.90;;;10.10;92.60;;;;;;2072722;28;20038;-91
2021/10/28 02:30:05;;;;;;;6.60;3.70;;;10.20;92.70;;;;;;2081450;28;20045;-91
2021/10/28 02:31:05;;;;;;;7.22;4.00;;;10.10;92.60;;;;;;2081455;28;20042;-91
2021/10/28 02:32:07;;;;;;;5.88;4.13;;;10.20;92.60;;;;;;2078775;28;20061;-90
2021/10/28 02:33:07;;;;;;;5.30;3.63;;;10.10;92.60;;;;;;2075697;28;20436;-91
2021/10/28 02:34:08;;;;;;;6.05;4.13;;;10.10;92.60;;;;;;2056700;28;20167;-90
2021/10/28 02:35:09;;;;;;;5.82;4.00;;;10.10;92.60;;;;;;2073291;28;20038;-90
2021/10/28 02:36:10;;;;;;;6.38;4.18;;;10.10;92.60;;;;;;2072808;28;20096;-91
2021/10/28 02:37:11;;;;;;;6.55;4.32;;;10.10;92.60;;;;;;2073653;28;20149;-91
2021/10/28 02:38:11;;;;;;;6.80;4.40;;;10.10;92.60;;;;;;2074271;28;20042;-91
2021/10/28 02:39:12;;;;;;;5.93;3.90;;;10.10;92.60;;;;;;2073499;28;20515;-91
2021/10/28 02:40:14;;;;;;;7.28;4.22;;;10.10;92.60;;;;;;2071466;28;20040;-91
2021/10/28 02:41:14;;;;;;;5.15;3.83;;;10.10;92.60;;;;;;2065350;28;20385;-92
2021/10/28 02:42:15;;;;;;;5.18;3.78;;;10.10;92.60;;;;;;2076456;28;20047;-91
2021/10/28 02:43:16;;;;;;;5.93;3.97;;;10.10;92.60;;;;;;2078048;28;20045;-91
2021/10/28 02:44:17;;;;;;;6.15;3.92;;;10.10;92.60;;;;;;2081651;28;20034;-91
2021/10/28 02:45:17;;;;;;;6.13;4.30;;;10.10;92.60;;;;;;2076043;28;20159;-92
2021/10/28 02:46:18;;;;;;;5.57;4.00;;;10.10;92.60;;;;;;2074500;28;20042;-91
2021/10/28 02:47:19;;;;;;;6.13;3.95;;;10.10;92.60;;;;;;2083115;28;20049;-91
2021/10/28 02:48:20;;;;;;;6.22;4.22;;;10.00;92.60;;;;;;2076586;28;20045;-91
2021/10/28 02:49:21;;;;;;;6.57;4.30;;;10.00;92.60;;;;;;2074959;28;20038;-91
2021/10/28 02:50:23;;;;;;;6.10;4.18;;;10.00;92.60;;;;;;2074563;28;20030;-92
2021/10/28 02:51:23;;;;;;;6.10;3.67;;;10.00;92.60;;;;;;2075073;28;20100;-91
2021/10/28 02:52:24;;;;;;;6.05;4.03;;;10.00;92.60;;;;;;2083561;28;20049;-91
2021/10/28 02:53:25;;;;;;;5.80;4.00;;;10.00;92.60;;;;;;2066192;28;20054;-91
2021/10/28 02:54:26;;;;;;;6.40;4.05;;;10.00;92.60;;;;;;2068577;28;20677;-91
2021/10/28 02:55:26;;;;;;;6.53;4.30;;;10.00;92.60;;;;;;2074540;28;20036;-92
2021/10/28 02:56:28;;;;;;;5.43;3.83;;;10.00;92.60;;;;;;2077945;28;20171;-92
2021/10/28 02:57:29;;;;;;;7.05;4.03;;;10.00;92.60;;;;;;2058533;28;20105;-91
2021/10/28 02:58:29;;;;;;;5.60;4.15;;;10.00;92.60;;;;;;2066690;28;20066;-92
2021/10/28 02:59:30;;;;;;;6.10;4.30;;;10.00;92.60;;;;;;2084965;28;20038;-91
2021/10/28 03:00:31;;;;;;;6.20;4.15;;;10.00;92.60;;;;;;2083073;28;20132;-91
2021/10/28 03:01:32;;;;;;;5.50;4.10;;;10.00;92.60;;;;;;2083317;28;20041;-90
2021/10/28 03:02:32;;;;;;;6.05;4.15;;;9.90;92.60;;;;;;2074713;28;20049;-92
2021/10/28 03:03:35;;;;;;;6.43;4.25;;;9.90;92.60;;;;;;2074597;28;20042;-91
2021/10/28 03:04:36;;;;;;;6.10;4.07;;;9.90;92.60;;;;;;2083199;28;20048;-91
2021/10/28 03:05:37;;;;;;;6.25;4.28;;;9.90;92.60;;;;;;2066400;28;20030;-92
2021/10/28 03:06:39;;;;;;;6.50;4.55;;;9.90;92.60;;;;;;2066519;28;20091;-91
2021/10/28 03:07:41;;;;;;;7.65;4.60;;;9.90;92.60;;;;;;2066509;28;20038;-91
2021/10/28 03:08:42;;;;;;;5.60;4.13;;;9.90;92.60;;;;;;2051647;28;20032;-91
2021/10/28 03:09:42;;;;;;;7.45;4.35;;;9.90;92.60;;;;;;2057962;28;20038;-93
2021/10/28 03:10:44;;;;;;;5.43;4.15;;;9.80;92.60;;;;;;2073672;28;20108;-91
2021/10/28 03:11:47;;;;;;;5.60;4.30;;;9.80;92.60;;;;;;2066521;28;20097;-91
2021/10/28 03:12:51;;;;;;;6.13;4.85;;;9.80;92.60;;;;;;2079721;28;20041;-91
2021/10/28 03:13:53;;;;;;;6.75;4.50;;;9.80;92.60;;;;;;2085255;28;20034;-91
2021/10/28 03:14:59;;;;;;;6.07;4.38;;;9.80;92.60;;;;;;2068033;28;20057;-91
2021/10/28 03:16:09;;;;;;;7.35;4.70;;;9.80;92.70;;;;;;2068811;28;20035;-92
2021/10/28 03:26:23;;;;;;;5.90;4.00;;;9.60;92.60;;;;;;2083366;28;20069;-91
2021/10/28 03:27:23;;;;;;;5.97;4.10;;;9.60;92.60;;;;;;2074544;28;20520;-92
2021/10/28 03:28:24;;;;;;;6.22;4.38;;;9.60;92.60;;;;;;2076039;28;20102;-91
2021/10/28 03:29:25;;;;;;;7.30;4.50;;;9.60;92.60;;;;;;2080268;28;20033;-91
2021/10/28 03:30:25;;;;;;;6.18;4.55;;;9.60;92.70;;;;;;2075280;28;20042;-91
2021/10/28 03:31:26;;;;;;;7.72;5.00;;;9.60;92.70;;;;;;2076963;28;20041;-91
2021/10/28 03:32:28;;;;;;;6.60;4.90;;;9.60;92.70;;;;;;2074769;28;20125;-91
2021/10/28 03:33:29;;;;;;;5.72;4.22;;;9.60;92.70;;;;;;2075720;28;20033;-91
2021/10/28 03:34:30;;;;;;;6.55;4.50;;;9.60;92.70;;;;;;2074740;28;20038;-91
2021/10/28 03:35:31;;;;;;;7.05;4.78;;;9.60;92.70;;;;;;2074827;28;20129;-91
2021/10/28 03:36:43;;;;;;;6.93;4.90;;;9.60;92.70;;;;;;2067848;28;20569;-91
2021/10/28 03:44:06;;;;;;;7.32;5.47;;;9.50;92.70;;;;;;2080137;28;20038;-91
2021/10/28 03:47:59;;;;;;;7.10;5.50;;;9.40;92.70;;;;;;2083745;28;20040;-91
2021/10/28 03:49:25;;;;;;;7.75;5.07;;;9.40;92.70;;;;;;2077485;28;20038;-90
2021/10/28 03:50:39;;;;;;;7.82;5.10;;;9.40;92.70;;;;;;2079432;28;20428;-91
2021/10/28 04:06:09;;;;;;;8.30;5.90;;;9.30;92.80;;;;;;2082451;28;20040;-91
2021/10/28 04:16:54;;;;;;;7.95;5.45;;;9.30;92.80;;;;;;2074137;28;20037;-92
2021/10/28 04:17:44;;;;;;;;;;;9.30;92.80;;;;;;2067225;28;20076;-91
2021/10/28 04:21:37;;;;;;;7.93;4.90;;;9.30;92.70;;;;;;2078811;28;20041;-91
2021/10/28 04:29:16;;;;;;;8.43;4.75;;;9.30;92.80;;;;;;2093015;28;20151;-90
2021/10/28 04:30:22;;;;;;;6.55;4.63;;;9.30;92.80;;;;;;2082760;28;20049;-90
2021/10/28 04:31:28;;;;;;;7.70;5.47;;;9.20;92.70;;;;;;2066825;28;20050;-91
2021/10/28 04:32:29;;;;;;;8.10;5.43;;;9.20;92.70;;;;;;2074471;28;20069;-91
2021/10/28 04:33:30;;;;;;;7.47;5.22;;;9.20;92.80;;;;;;2074817;28;20034;-91
2021/10/28 04:34:30;;;;;;;7.35;5.22;;;9.20;92.80;;;;;;2083472;28;20041;-91
2021/10/28 04:35:31;;;;;;;7.68;5.35;;;9.20;92.80;;;;;;2089948;28;20045;-91
2021/10/28 04:36:33;;;;;;;8.07;5.28;;;9.20;92.80;;;;;;2076439;28;20038;-91
2021/10/28 04:37:34;;;;;;;8.52;5.47;;;9.20;92.80;;;;;;2073997;28;20038;-90
2021/10/28 04:38:36;;;;;;;7.03;5.18;;;9.20;92.80;;;;;;2082950;28;20041;-92
2021/10/28 04:39:37;;;;;;;8.35;5.93;;;9.20;92.90;;;;;;2073885;28;20045;-92
2021/10/28 04:40:38;;;;;;;7.65;5.43;;;9.20;92.90;;;;;;2065724;28;20038;-91
2021/10/28 04:41:39;;;;;;;8.05;5.72;;;9.20;92.90;;;;;;2067203;28;20088;-91
2021/10/28 04:42:40;;;;;;;7.60;5.43;;;9.20;92.90;;;;;;2074030;28;20520;-91
2021/10/28 04:43:41;;;;;;;7.88;5.60;;;9.20;92.90;;;;;;2077940;28;20085;-92
2021/10/28 04:44:42;;;;;;;8.27;5.97;;;9.20;92.90;;;;;;2082625;28;20030;-92
2021/10/28 04:45:42;;;;;;;8.32;6.00;;;9.20;92.90;;;;;;2073524;28;20069;-91
2021/10/28 04:46:43;;;;;;;9.27;6.07;;;9.20;92.90;;;;;;2065585;28;20045;-91
2021/10/28 04:47:44;;;;;;;9.10;6.18;;;9.20;92.90;;;;;;2066276;28;20499;-91
2021/10/28 04:48:45;;;;;;;8.85;6.38;;;9.20;92.90;;;;;;2079454;28;20116;-92
2021/10/28 04:49:46;;;;;;;8.38;5.88;;;9.20;93.20;;;;;;2082423;28;20033;-92
2021/10/28 04:50:46;;;;;;;8.90;6.05;;;9.20;92.90;;;;;;2084874;28;20418;-91
2021/10/28 04:51:47;;;;;;;8.13;5.90;;;9.20;93.00;;;;;;2078037;28;20038;-91
2021/10/28 04:52:48;;;;;;;8.50;5.80;;;9.20;93.00;;;;;;2081980;28;20045;-91
2021/10/28 04:53:48;;;;;;;8.60;6.18;;;9.20;93.00;;;;;;2078618;28;20029;-91
2021/10/28 04:54:50;;;;;;;8.30;5.78;;;9.20;93.00;;;;;;2073642;28;20423;-91
2021/10/28 04:55:50;;;;;;;9.27;6.10;;;9.20;93.00;;;;;;2067056;28;20038;-92
2021/10/28 04:56:51;;;;;;;9.30;6.20;;;9.20;93.30;;;;;;2073751;28;20041;-91
2021/10/28 04:57:52;;;;;;;9.18;6.18;;;9.20;93.00;;;;;;2080913;28;20037;-90
2021/10/28 04:58:52;;;;;;;8.35;6.03;;;9.20;93.00;;;;;;2073380;28;20377;-90
2021/10/28 04:59:53;;;;;;;10.30;5.93;;;9.20;93.00;;;;;;2065273;28;20041;-93
2021/10/28 05:00:54;;;;;;;8.57;6.03;;;9.20;93.00;;;;;;2076092;28;20539;-90
2021/10/28 05:01:54;;;;;;;7.93;5.78;;;9.20;93.00;;;;;;2072295;28;20030;-91
2021/10/28 05:02:55;;;;;;;7.68;5.70;;;9.20;93.00;;;;;;2062976;28;20045;-91
2021/10/28 05:03:56;;;;;;;8.63;6.28;;;9.20;93.00;;;;;;2069180;28;20093;-90
2021/10/28 05:04:56;;;;;;;7.72;5.63;;;9.20;93.00;;;;;;2073778;28;20040;-91
2021/10/28 05:05:57;;;;;;;7.70;5.60;;;9.20;93.00;;;;;;2073477;28;20038;-91
2021/10/28 05:06:57;;;;;;;10.82;6.10;;;9.20;93.00;;;;;;2073785;28;20523;-90
2021/10/28 05:07:58;;;;;;;10.20;6.65;;;9.20;93.00;;;;;;2070256;28;20065;-90
2021/10/28 05:08:59;;;;;;;8.02;5.60;;;9.20;92.90;;;;;;2062563;28;20038;-91
2021/10/28 05:09:59;;;;;;;9.02;6.15;;;9.20;92.90;;;;;;2059815;28;20058;-91
2021/10/28 05:11:01;;;;;;;9.07;6.00;;;9.20;92.90;;;;;;2057427;28;20039;-91
2021/10/28 05:12:01;;;;;;;10.30;6.00;;;9.20;92.90;;;;;;2066222;28;20150;-90
2021/10/28 05:13:02;;;;;;;8.85;6.38;;;9.20;92.90;;;;;;2065434;28;20054;-91
2021/10/28 05:14:03;;;;;;;9.45;6.32;;;9.20;92.90;;;;;;2045786;28;20129;-94
2021/10/28 05:15:04;;;;;;;9.43;6.40;;;9.20;92.90;;;;;;2059430;28;20113;-92
2021/10/28 05:16:05;;;;;;;7.22;5.72;;;9.20;92.90;;;;;;2065401;28;20043;-92
2021/10/28 05:17:06;;;;;;;9.05;6.57;;;9.20;92.90;;;;;;2060175;28;20097;-91
2021/10/28 05:18:08;;;;;;;8.85;6.05;;;9.10;92.90;;;;;;2068268;28;20528;-91
2021/10/28 05:19:09;;;;;;;9.18;5.85;;;9.10;92.90;;;;;;2075241;28;20535;-92
2021/10/28 05:20:10;;;;;;;8.82;6.15;;;9.10;92.90;;;;;;2073289;28;20033;-91
2021/10/28 05:21:13;;;;;;;9.75;6.45;;;9.10;92.90;;;;;;2072761;28;20045;-92
2021/10/28 05:22:14;;;;;;;8.55;6.40;;;9.10;92.90;;;;;;2082905;28;20043;-91
2021/10/28 05:23:14;;;;;;;8.38;6.10;;;9.10;93.00;;;;;;2069287;28;20025;-91
2021/10/28 05:24:15;;;;;;;8.80;5.63;;;9.10;93.00;;;;;;2065342;28;20066;-93
2021/10/28 05:25:16;;;;;;;8.55;5.53;;;9.10;93.00;;;;;;2079904;28;20411;-91
2021/10/28 05:26:16;;;;;;;9.90;6.70;;;9.10;93.00;;;;;;2073415;28;20048;-92
2021/10/28 05:27:17;;;;;;;9.02;6.38;;;9.10;93.00;;;;;;2070059;28;20129;-90
2021/10/28 05:28:18;;;;;;;9.80;6.63;;;9.10;93.00;;;;;;2073464;28;20397;-90
2021/10/28 05:29:18;;;;;;;8.27;6.30;;;9.10;93.00;;;;;;2079129;28;20045;-90
2021/10/28 05:30:19;;;;;;;8.75;5.78;;;9.10;93.00;;;;;;2075266;28;20497;-91
2021/10/28 05:31:21;;;;;;;8.52;6.00;;;9.10;93.00;;;;;;2074628;28;20038;-91
2021/10/28 05:32:22;;;;;;;9.00;6.35;;;9.10;93.00;;;;;;2074323;28;20092;-89
2021/10/28 05:33:23;;;;;;;9.85;6.10;;;9.10;93.00;;;;;;2065682;28;20042;-91
2021/10/28 05:34:23;;;;;;;10.30;6.20;;;9.10;93.00;;;;;;2074130;28;20100;-91
2021/10/28 05:35:25;;;;;;;9.55;5.93;;;9.10;93.00;;;;;;2074136;28;20496;-93
2021/10/28 05:36:26;;;;;;;8.40;6.20;;;9.10;93.30;;;;;;2074256;28;20096;-92
2021/10/28 05:37:27;;;;;;;7.22;5.45;;;9.20;93.00;;;;;;2074490;28;20068;-93
2021/10/28 05:38:28;;;;;;;8.07;5.88;;;9.20;93.00;;;;;;2074506;28;20496;-89
2021/10/28 05:39:29;;;;;;;9.30;5.85;;;9.20;93.00;;;;;;2077877;28;20038;-90
2021/10/28 05:40:30;;;;;;;8.25;5.80;;;9.20;93.00;;;;;;2074988;28;20037;-89
2021/10/28 05:41:30;;;;;;;9.45;5.85;;;9.20;93.00;;;;;;2081353;28;20072;-90
2021/10/28 05:42:31;;;;;;;8.98;6.07;;;9.20;93.00;;;;;;2071154;28;20037;-90
2021/10/28 05:43:32;;;;;;;9.65;5.75;;;9.20;93.00;;;;;;2065401;28;20088;-88
2021/10/28 05:44:33;;;;;;;9.45;6.03;;;9.20;93.00;;;;;;2078684;28;20136;-90
2021/10/28 05:45:34;;;;;;;9.02;6.20;;;9.20;92.90;;;;;;2074923;28;20045;-90
2021/10/28 05:46:35;;;;;;;9.60;5.75;;;9.20;93.00;;;;;;2072898;28;20034;-89
2021/10/28 05:47:37;;;;;;;9.55;6.03;;;9.20;93.00;;;;;;2073090;28;20037;-89
2021/10/28 05:48:38;;;;;;;8.23;5.82;;;9.10;92.90;;;;;;2073280;28;20034;-90
2021/10/28 05:49:38;;;;;;;9.13;6.10;;;9.20;93.00;;;;;;2066855;28;20061;-90
2021/10/28 05:50:41;;;;;;;9.50;5.78;;;9.10;92.90;;;;;;2065095;28;20509;-89
2021/10/28 05:51:42;;;;;;;9.30;6.03;;;9.10;92.90;;;;;;2089485;28;20087;-90
2021/10/28 05:52:45;;;;;;;9.65;6.20;;;9.10;92.90;;;;;;2072845;28;20054;-90
2021/10/28 05:53:46;;;;;;;9.98;6.55;;;9.10;92.90;;;;;;2057450;28;20041;-89
2021/10/28 05:54:47;;;;;;;8.80;6.35;;;9.10;92.90;;;;;;2073293;28;20049;-90
2021/10/28 05:55:48;;;;;;;9.55;6.25;;;9.10;92.90;;;;;;2073221;28;20033;-90
2021/10/28 05:56:49;;;;;;;10.32;6.47;;;9.10;93.00;;;;;;2065009;28;20100;-90
2021/10/28 05:57:51;;;;;;;9.25;6.15;;;9.10;93.00;;;;;;2065172;28;20035;-89
2021/10/28 05:58:52;;;;;;;8.80;6.28;;;9.10;93.00;;;;;;2066256;28;20046;-90
2021/10/28 05:59:53;;;;;;;9.85;6.55;;;9.10;93.00;;;;;;2076134;28;20053;-89
2021/10/28 06:00:53;;;;;;;9.35;6.63;;;9.10;93.00;;;;;;2073564;28;20137;-90
2021/10/28 06:01:54;;;;;;;9.63;6.72;;;9.10;93.00;;;;;;2073909;28;20493;-90
2021/10/28 06:02:54;;;;;;;8.10;5.82;;;9.10;93.00;;;;;;2072769;28;20511;-90
2021/10/28 06:03:55;;;;;;;9.75;6.63;;;9.10;93.00;;;;;;2065102;28;20039;-90
2021/10/28 06:04:56;;;;;;;11.43;6.85;;;9.10;93.00;;;;;;2065220;28;20038;-89
2021/10/28 06:05:56;;;;;;;9.13;6.30;;;9.00;92.90;;;;;;2067901;28;20103;-88
2021/10/28 06:06:57;;;;;;;9.52;6.18;;;9.10;93.00;;;;;;2072225;28;20030;-91
2021/10/28 06:07:58;;;;;;;10.25;6.78;;;9.00;92.90;;;;;;2083793;28;20087;-91
2021/10/28 06:08:58;;;;;;;9.50;6.63;;;9.00;92.90;;;;;;2065433;28;20089;-91
2021/10/28 06:09:59;;;;;;;8.25;5.75;;;9.00;93.00;;;;;;2073157;28;20077;-91
2021/10/28 06:11:00;;;;;;;9.45;6.70;;;9.00;93.00;;;;;;2076720;28;20026;-91
2021/10/28 06:12:00;;;;;;;10.07;7.07;;;9.00;93.00;;;;;;2075613;28;20522;-92
2021/10/28 06:13:05;;;;;;;10.10;6.88;;;9.00;93.00;;;;;;2081925;28;20045;-91
2021/10/28 06:14:05;;;;;;;8.52;6.30;;;9.00;93.00;;;;;;2081717;28;20044;-88
2021/10/28 06:15:07;;;;;;;8.65;6.10;;;9.00;93.00;;;;;;2080485;28;20045;-92
2021/10/28 06:16:08;;;;;;;11.02;7.05;;;9.00;93.00;;;;;;2072152;28;20129;-91
2021/10/28 06:17:12;;;;;;;8.90;6.65;;;8.90;93.00;;;;;;2077496;28;20057;-92
2021/10/28 06:19:14;;;;;;;10.65;7.15;;;9.00;93.00;;;;;;2086845;28;20057;-92
2021/10/28 06:20:15;;;;;;;8.90;6.20;;;9.00;93.00;;;;;;2090591;28;20568;-92
2021/10/28 06:21:19;;;;;;;10.93;6.55;;;9.00;93.00;;;;;;2092039;28;21892;-91
2021/10/28 06:22:19;;;;;;;10.13;6.78;;;9.00;93.00;;;;;;2075110;28;20044;-91
2021/10/28 06:23:20;;;;;;;10.60;6.72;;;9.00;93.00;;;;;;2076257;28;20117;-93
2021/10/28 06:24:21;;;;;;;11.10;6.78;;;9.00;93.00;;;;;;2075232;28;20500;-91
2021/10/28 06:25:21;;;;;;;9.98;7.18;;;9.00;93.00;;;;;;2071503;28;20033;-91
2021/10/28 06:26:22;;;;;;;9.82;6.63;;;9.00;93.00;;;;;;2079298;28;20072;-92
2021/10/28 06:27:23;;;;;;;10.15;7.07;;;9.00;93.00;;;;;;2083032;28;20033;-92
2021/10/28 06:28:24;;;;;;;9.63;6.65;;;8.90;93.00;;;;;;2076795;28;20034;-92
2021/10/28 06:29:25;;;;;;;9.73;6.22;;;9.00;93.00;;;;;;2083606;28;20557;-92
2021/10/28 06:30:26;;;;;;;10.02;6.70;;;8.90;93.00;;;;;;2074601;28;20042;-91